Soaring Guidance
Issued by NWS Reno, NV

Home | Current Version | Previous Version | Text Only | Print | Product List | Glossary On
Versions: 1 2 3 4 5 6 7 8 9 10 11 12 13
000
UXUS97 KREV 251433
SRGREV

SOARING FORECAST
NATIONAL WEATHER SERVICE - RENO NV
700 AM PST WED NOV 25 2020

THIS SOARING FORECAST IS FOR THE EASTERN SIERRA AND WESTERN NEVADA
WITH SPECIFIC INDICES FOR THE GREATER RENO AREA.

THIS FORECAST IS PREPARED DAILY BY 700 AM AND IS NOT UPDATED.

FOR CURRENT FLIGHT CONDITIONS...FORECASTS...AND ADVISORIES...ACCESS
YOUR LOCAL BRIEFING OUTLET OR FLIGHT SERVICE STATION.

*******************************************************************
FORECASTED LOCAL INDICES FOR RENO:        TODAY     YESTERDAY
FORECASTED MAX TEMP AT RENO (DEG F).....     48          52
FORECASTED TRIGGER TEMPERATURE (DEG F)..     51          50
   EXCEEDED YESTERDAY BY 1355 PM PST
FORECASTED MAXIMUM ALTITUDE (FT MSL)....   5300        9000
FORECASTED SOARING INDEX (FPM)..........    -51         240
FORECASTED K-INDEX.........VALID 18Z....     17           3
FORECASTED K-INDEX.........VALID 00Z....     24          -4
FORECASTED LIFTED INDEX....VALID 18Z....      8          14
FORECASTED LIFTED INDEX....VALID 00Z....      5          12

AFTERNOON WINDS ALOFT FORECAST
MSL (FT) WIND/TEMP
9000  3112/-08
10000 2915/-09
12000 2821/-13
14000 2826/-16
16000 2832/-20
18000 2850/-24
24000 2770/-33
30000 2688/-44
34000 2693/-50
39000 2667/-55

SLIDE MOUNTAIN DATA:
     DATE       TIME     TEMP  DEWPT   RH         WIND (MPH)
                        (F)   (F)           | DIR  SPEED GUST
2020-11-25    05:20      22    18     79    | 267   33   51
2020-11-25    05:00      22    18     79    | 268   35   58
2020-11-25    04:50      22    18     78    | 269   38   55
2020-11-25    04:30      23    18     77    | 271   40   60

SIERRA CREST 8700 FT DATA:
   DATE     TIME  TEMP  RH         WIND
                            DIR   SPEED   GUST
2020-11-24 1530   40   26   030
2020-11-24 1515   40   26   023        N/A
2020-11-24 1500   41   27   020
2020-11-24 1445   41   24   000

RENO TAF FORECAST:
KRNO 251131Z 2512/2612 22012G20KT P6SM FEW120 SCT250 WS020/25040KT
     FM251700 33006KT P6SM FEW070 SCT200
     FM252000 32011G20KT P6SM SCT040 BKN120
     FM260300 VRB03KT P6SM FEW060 SCT120

MINDEN TAF FORECAST:
KMEV 251131Z 2512/2612 16009G16KT P6SM FEW150 SCT250 WS020/25045KT
     FM251700 03006KT P6SM FEW150 SCT250
     FM252000 35011KT P6SM FEW100 BKN150
     FM260300 VRB04KT P6SM FEW040 SCT150

OUTLOOK FOR THE RENO-CARSON CITY-MINDEN AREA:
.THANKSGIVING DAY...PARTLY CLOUDY IN THE MORNING THEN CLEARING.
HIGHS 38 TO 43. NORTHEAST WINDS 10 TO 15 MPH.

SUNRISE AND SUNSET
NOVEMBER 25 2020......SUNRISE   655 AM PST   SUNSET   438 PM PST
NOVEMBER 26 2020......SUNRISE   656 AM PST   SUNSET   437 PM PST


USA.gov is the U.S. government's official web portal to all federal, state and local government web resources and services.